createdAt,value
2023-03-29T00:02:03.067Z,10.64
2023-03-29T00:04:29.517Z,10.58
2023-03-29T00:06:55.951Z,10.67
2023-03-29T00:09:22.353Z,10.68
2023-03-29T00:11:48.726Z,10.73
2023-03-29T00:14:15.060Z,10.96
2023-03-29T00:16:41.515Z,10.93
2023-03-29T00:19:07.913Z,11.02
2023-03-29T00:21:34.237Z,11.03
2023-03-29T00:24:00.582Z,11.12
2023-03-29T00:26:26.952Z,11.16
2023-03-29T00:28:53.290Z,11.02
2023-03-29T00:31:19.757Z,10.92
2023-03-29T00:33:46.164Z,10.70
2023-03-29T00:36:12.547Z,10.59
2023-03-29T00:38:38.921Z,10.48
2023-03-29T00:41:05.320Z,10.60
2023-03-29T00:43:31.670Z,10.63
2023-03-29T00:45:58.063Z,10.48
2023-03-29T00:48:24.460Z,10.39
2023-03-29T00:50:50.808Z,10.50
2023-03-29T00:53:17.147Z,10.44
2023-03-29T00:55:43.520Z,10.62
2023-03-29T00:58:09.877Z,10.70
2023-03-29T01:00:36.233Z,10.60
2023-03-29T01:03:02.675Z,10.56
2023-03-29T01:05:29.067Z,10.47
2023-03-29T01:07:55.445Z,10.44
2023-03-29T01:10:21.803Z,10.56
2023-03-29T01:12:48.183Z,10.50
2023-03-29T01:15:14.526Z,10.55
2023-03-29T01:17:40.877Z,10.63
2023-03-29T01:20:07.256Z,10.71
2023-03-29T01:22:33.643Z,10.84
2023-03-29T01:25:00.053Z,10.78
2023-03-29T01:27:26.452Z,10.72
2023-03-29T01:29:52.811Z,10.71
2023-03-29T01:32:19.160Z,10.68
2023-03-29T01:34:45.536Z,10.62
2023-03-29T01:37:11.938Z,10.58
2023-03-29T01:39:38.290Z,10.66
2023-03-29T01:42:04.669Z,10.91
2023-03-29T01:44:31.058Z,11.08
2023-03-29T01:46:57.440Z,11.10
2023-03-29T01:49:23.786Z,11.15
2023-03-29T01:51:50.160Z,11.12
2023-03-29T01:54:16.509Z,11.05
2023-03-29T01:56:42.931Z,11.05
2023-03-29T01:59:09.349Z,11.11
2023-03-29T02:01:35.728Z,11.19
2023-03-29T02:04:02.125Z,11.26
2023-03-29T02:06:28.516Z,11.16
2023-03-29T02:08:54.859Z,11.15
2023-03-29T02:11:21.191Z,11.00
2023-03-29T02:13:47.537Z,10.89
2023-03-29T02:16:13.964Z,11.07
2023-03-29T02:18:40.348Z,11.05
2023-03-29T02:21:06.728Z,10.99
2023-03-29T02:23:33.082Z,11.14
2023-03-29T02:25:59.506Z,10.92
2023-03-29T02:28:25.865Z,10.87
2023-03-29T02:30:52.228Z,10.87
2023-03-29T02:33:18.592Z,11.04
2023-03-29T02:35:44.998Z,11.10
2023-03-29T02:38:11.390Z,11.05
2023-03-29T02:40:37.832Z,11.15
2023-03-29T02:43:04.230Z,11.27
2023-03-29T02:45:30.644Z,11.18
2023-03-29T02:47:57.085Z,11.12
2023-03-29T02:50:23.481Z,11.03
2023-03-29T02:52:49.830Z,11.04
2023-03-29T02:55:16.202Z,11.11
2023-03-29T02:57:42.547Z,11.10
2023-03-29T03:00:08.931Z,11.02
2023-03-29T03:02:35.404Z,10.95
2023-03-29T03:05:01.827Z,11.01
2023-03-29T03:07:28.159Z,11.03
2023-03-29T03:09:54.499Z,11.04
2023-03-29T03:12:20.892Z,11.01
2023-03-29T03:14:47.290Z,11.20
2023-03-29T03:17:13.687Z,11.13
2023-03-29T03:19:40.054Z,11.07
2023-03-29T03:22:06.412Z,11.07
2023-03-29T03:24:32.816Z,11.09
2023-03-29T03:26:59.183Z,11.06
2023-03-29T03:29:25.536Z,11.19
2023-03-29T03:31:53.289Z,11.44
2023-03-29T03:34:20.340Z,11.49
2023-03-29T03:36:46.731Z,11.31
2023-03-29T03:39:13.084Z,11.24
2023-03-29T03:41:39.464Z,11.29
2023-03-29T03:44:05.844Z,11.16
2023-03-29T03:46:32.276Z,11.07
2023-03-29T03:48:58.661Z,11.05
2023-03-29T03:51:25.010Z,11.08
2023-03-29T03:53:51.384Z,11.23
2023-03-29T03:56:17.764Z,11.20
2023-03-29T03:58:44.218Z,11.16
2023-03-29T04:01:10.606Z,11.23
2023-03-29T04:03:37.064Z,11.24
2023-03-29T04:06:03.502Z,11.23
2023-03-29T04:08:29.847Z,11.21
2023-03-29T04:10:56.191Z,11.10
2023-03-29T04:13:22.565Z,11.13
2023-03-29T04:15:48.950Z,11.10
2023-03-29T04:18:15.426Z,11.10
2023-03-29T04:20:41.835Z,11.07
2023-03-29T04:23:08.176Z,10.99
2023-03-29T04:25:34.565Z,11.03
2023-03-29T04:28:00.911Z,11.02
2023-03-29T04:30:27.258Z,11.01
2023-03-29T04:32:53.690Z,10.96
2023-03-29T04:35:20.126Z,10.91
2023-03-29T04:37:46.507Z,10.87
2023-03-29T04:40:12.896Z,10.87
2023-03-29T04:42:39.236Z,10.89
2023-03-29T04:45:05.609Z,10.95
2023-03-29T04:47:32.065Z,11.02
2023-03-29T04:49:58.498Z,10.99
2023-03-29T04:52:24.952Z,10.95
2023-03-29T04:54:51.376Z,10.95
2023-03-29T04:57:17.778Z,10.98
2023-03-29T04:59:44.253Z,11.01
2023-03-29T05:02:10.754Z,10.98
2023-03-29T05:04:37.296Z,10.96
2023-03-29T05:07:03.660Z,11.04
2023-03-29T05:09:29.985Z,11.07
2023-03-29T05:11:56.310Z,11.11
2023-03-29T05:14:22.695Z,11.08
2023-03-29T05:16:49.047Z,11.06
2023-03-29T05:19:15.426Z,11.05
2023-03-29T05:21:43.741Z,11.01
2023-03-29T05:24:11.808Z,10.99
2023-03-29T05:26:38.161Z,10.90
2023-03-29T05:29:04.603Z,10.98
2023-03-29T05:31:31.034Z,10.99
2023-03-29T05:33:57.429Z,11.01
2023-03-29T05:36:23.775Z,11.03
2023-03-29T05:38:50.150Z,11.05
2023-03-29T05:41:16.500Z,10.96
2023-03-29T05:43:42.868Z,10.88
2023-03-29T05:46:09.288Z,10.86
2023-03-29T05:48:35.702Z,10.87
2023-03-29T05:51:02.289Z,10.85
2023-03-29T05:53:28.752Z,10.86
2023-03-29T05:55:55.125Z,10.91
2023-03-29T05:58:21.584Z,10.87
2023-03-29T06:00:48.075Z,10.82
2023-03-29T06:03:20.840Z,10.73
2023-03-29T06:05:49.652Z,10.74
2023-03-29T06:08:16.288Z,10.70
2023-03-29T06:10:42.689Z,10.65
2023-03-29T06:13:09.032Z,10.68
2023-03-29T06:15:35.379Z,10.70
2023-03-29T06:18:01.820Z,10.75
2023-03-29T06:20:28.185Z,10.84
2023-03-29T06:22:54.532Z,10.92
2023-03-29T06:25:20.908Z,10.94
2023-03-29T06:27:47.302Z,10.96
2023-03-29T06:30:13.651Z,10.98
2023-03-29T06:32:40.088Z,10.96
2023-03-29T06:35:06.517Z,10.99
2023-03-29T06:37:32.952Z,11.07
2023-03-29T06:39:59.302Z,11.17
2023-03-29T06:42:25.748Z,11.29
2023-03-29T06:44:52.124Z,11.43
2023-03-29T06:47:18.497Z,11.61
2023-03-29T06:49:44.887Z,11.70
2023-03-29T06:52:11.269Z,11.83
2023-03-29T06:54:37.621Z,11.96
2023-03-29T06:57:04.025Z,12.13
2023-03-29T06:59:30.394Z,12.15
2023-03-29T07:01:56.770Z,12.16
2023-03-29T07:04:23.280Z,12.17
2023-03-29T07:06:49.875Z,12.25
2023-03-29T07:09:17.162Z,12.25
2023-03-29T07:11:45.345Z,12.25
2023-03-29T07:14:11.687Z,12.23
2023-03-29T07:16:38.080Z,12.27
2023-03-29T07:19:04.467Z,12.43
2023-03-29T07:21:30.811Z,12.35
2023-03-29T07:23:57.225Z,12.36
2023-03-29T07:26:28.914Z,12.42
2023-03-29T07:28:56.408Z,12.54
2023-03-29T07:31:22.768Z,12.59
2023-03-29T07:33:49.243Z,12.65
2023-03-29T07:36:15.826Z,12.62
2023-03-29T07:38:42.239Z,12.76
2023-03-29T07:41:08.584Z,12.68
2023-03-29T07:43:34.974Z,12.90
2023-03-29T07:46:01.357Z,13.01
2023-03-29T07:48:27.751Z,13.03
2023-03-29T07:50:54.209Z,13.01
2023-03-29T07:53:20.702Z,13.00
2023-03-29T07:55:47.576Z,12.92
2023-03-29T07:58:14.223Z,13.11
2023-03-29T08:00:40.657Z,13.18
2023-03-29T08:03:07.109Z,13.18
2023-03-29T08:05:40.803Z,13.08
2023-03-29T08:08:07.978Z,13.01
2023-03-29T08:10:34.397Z,13.00
2023-03-29T08:13:00.771Z,12.95
2023-03-29T08:15:27.172Z,13.05
2023-03-29T08:17:53.699Z,13.10
2023-03-29T08:20:20.078Z,13.20
2023-03-29T08:22:46.427Z,13.37
2023-03-29T08:25:12.765Z,13.51
2023-03-29T08:27:39.125Z,13.66
2023-03-29T08:30:05.657Z,13.57
2023-03-29T08:32:32.090Z,13.75
2023-03-29T08:34:58.439Z,13.76
2023-03-29T08:37:24.775Z,13.76
2023-03-29T08:39:51.162Z,13.84
2023-03-29T08:42:17.502Z,14.06
2023-03-29T08:44:43.853Z,14.10
2023-03-29T08:47:10.199Z,14.26
2023-03-29T08:49:36.584Z,14.15
2023-03-29T08:52:02.984Z,14.10
2023-03-29T08:54:29.370Z,14.16
2023-03-29T08:56:55.797Z,14.20
2023-03-29T08:59:22.148Z,14.19
2023-03-29T09:01:48.765Z,14.26
2023-03-29T09:04:15.167Z,14.28
2023-03-29T09:06:41.521Z,14.41
2023-03-29T09:09:07.897Z,14.45
2023-03-29T09:11:34.246Z,14.50
2023-03-29T09:14:00.629Z,14.44
2023-03-29T09:16:27.078Z,14.45
2023-03-29T09:18:53.576Z,14.38
2023-03-29T09:21:19.968Z,14.52
2023-03-29T09:23:46.315Z,14.58
2023-03-29T09:26:12.702Z,14.64
2023-03-29T09:28:39.055Z,14.64
2023-03-29T09:31:05.539Z,14.77
2023-03-29T09:33:31.927Z,14.95
2023-03-29T09:35:58.370Z,14.85
2023-03-29T09:38:24.736Z,14.85
2023-03-29T09:40:51.145Z,14.78
2023-03-29T09:43:17.542Z,14.85
2023-03-29T09:45:44.030Z,15.06
2023-03-29T09:48:10.484Z,15.09
2023-03-29T09:50:36.904Z,15.14
2023-03-29T09:53:03.288Z,15.13
2023-03-29T09:55:29.652Z,15.17
2023-03-29T09:57:56.340Z,15.17
2023-03-29T10:00:22.729Z,15.36
2023-03-29T10:02:50.201Z,15.26
2023-03-29T10:05:16.578Z,15.20
2023-03-29T10:07:42.955Z,15.22
2023-03-29T10:10:09.305Z,15.14
2023-03-29T10:12:35.646Z,15.15
2023-03-29T10:15:01.973Z,15.16
2023-03-29T10:17:28.358Z,15.17
2023-03-29T10:19:54.708Z,15.27
2023-03-29T10:22:21.081Z,15.26
2023-03-29T10:24:47.512Z,15.39
2023-03-29T10:27:13.864Z,15.42
2023-03-29T10:29:40.209Z,15.32
2023-03-29T10:32:06.643Z,15.17
2023-03-29T10:34:33.069Z,15.11
2023-03-29T10:36:59.422Z,15.06
2023-03-29T10:39:25.813Z,14.87
2023-03-29T10:41:52.174Z,14.83
2023-03-29T10:44:18.561Z,14.75
2023-03-29T10:46:44.912Z,14.62
2023-03-29T10:49:11.263Z,14.54
2023-03-29T10:51:37.633Z,14.60
2023-03-29T10:54:03.999Z,14.62
2023-03-29T10:56:30.392Z,14.62
2023-03-29T10:58:56.750Z,14.67
2023-03-29T11:01:23.142Z,14.65
2023-03-29T11:03:49.605Z,14.71
2023-03-29T11:06:16.088Z,14.80
2023-03-29T11:08:42.457Z,14.74
2023-03-29T11:11:08.833Z,14.73
2023-03-29T11:13:35.180Z,14.80
2023-03-29T11:16:01.629Z,14.99
2023-03-29T11:18:28.008Z,14.92
2023-03-29T11:20:54.380Z,15.02
2023-03-29T11:23:20.731Z,15.08
2023-03-29T11:25:47.068Z,15.20
2023-03-29T11:28:13.453Z,15.40
2023-03-29T11:30:39.812Z,15.55
2023-03-29T11:33:06.229Z,15.71
2023-03-29T11:35:32.698Z,15.77
2023-03-29T11:37:59.093Z,15.68
2023-03-29T11:40:25.470Z,15.75
2023-03-29T11:42:51.828Z,15.83
2023-03-29T11:45:18.219Z,16.06
2023-03-29T11:47:44.627Z,16.04
2023-03-29T11:50:11.041Z,15.84
2023-03-29T11:52:37.431Z,16.01
2023-03-29T11:55:03.826Z,16.06
2023-03-29T11:57:30.266Z,16.02
2023-03-29T11:59:56.670Z,16.00
2023-03-29T12:02:23.071Z,16.01
2023-03-29T12:04:49.506Z,15.83
2023-03-29T12:07:15.886Z,15.67
2023-03-29T12:09:42.278Z,15.83
2023-03-29T12:12:08.625Z,16.03
2023-03-29T12:14:35.001Z,16.29
2023-03-29T12:17:01.481Z,16.55
2023-03-29T12:19:27.838Z,16.64
2023-03-29T12:21:54.220Z,16.78
2023-03-29T12:24:20.610Z,16.82
2023-03-29T12:26:47.021Z,16.84
2023-03-29T12:29:13.390Z,16.92
2023-03-29T12:31:39.790Z,16.98
2023-03-29T12:34:06.204Z,17.03
2023-03-29T12:36:32.540Z,16.96
2023-03-29T12:38:58.961Z,17.06
2023-03-29T12:41:25.305Z,16.93
2023-03-29T12:43:51.704Z,16.99
2023-03-29T12:46:18.146Z,16.98
2023-03-29T12:48:44.584Z,17.00
2023-03-29T12:51:10.941Z,17.07
2023-03-29T12:53:37.279Z,16.98
2023-03-29T12:56:03.807Z,17.04
2023-03-29T12:58:30.311Z,16.91
2023-03-29T13:00:56.720Z,16.72
2023-03-29T13:03:23.170Z,16.75
2023-03-29T13:05:49.588Z,16.68
2023-03-29T13:08:15.972Z,16.71
2023-03-29T13:10:42.380Z,16.67
2023-03-29T13:13:08.726Z,16.63
2023-03-29T13:15:35.143Z,16.75
2023-03-29T13:18:01.632Z,17.00
2023-03-29T13:20:28.060Z,17.08
2023-03-29T13:22:54.452Z,17.17
2023-03-29T13:25:20.810Z,17.39
2023-03-29T13:27:47.184Z,17.40
2023-03-29T13:30:13.568Z,17.49
2023-03-29T13:32:40.200Z,17.80
2023-03-29T13:35:06.641Z,17.88
2023-03-29T13:37:33.055Z,18.05
2023-03-29T13:39:59.444Z,18.01
2023-03-29T13:42:25.842Z,18.05
2023-03-29T13:44:52.259Z,18.08
2023-03-29T13:47:18.650Z,18.17
2023-03-29T13:49:44.994Z,18.28
2023-03-29T13:52:11.378Z,18.28
2023-03-29T13:54:37.732Z,18.24
2023-03-29T13:57:04.108Z,18.05
2023-03-29T13:59:30.490Z,17.94
2023-03-29T14:01:56.926Z,17.98
2023-03-29T14:04:23.343Z,17.93
2023-03-29T14:06:49.713Z,18.12
2023-03-29T14:09:16.042Z,18.11
2023-03-29T14:11:42.407Z,17.97
2023-03-29T14:14:08.790Z,18.01
2023-03-29T14:16:35.216Z,17.85
2023-03-29T14:19:01.657Z,17.92
2023-03-29T14:21:28.024Z,18.17
2023-03-29T14:23:54.405Z,18.12
2023-03-29T14:26:20.793Z,18.16
2023-03-29T14:28:47.167Z,18.13
2023-03-29T14:31:13.511Z,17.98
2023-03-29T14:33:39.896Z,18.02
2023-03-29T14:36:06.551Z,17.84
2023-03-29T14:38:33.165Z,17.89
2023-03-29T14:40:59.535Z,17.91
2023-03-29T14:43:25.922Z,17.88
2023-03-29T14:45:52.342Z,17.87
2023-03-29T14:48:18.748Z,17.77
2023-03-29T14:50:45.146Z,17.79
2023-03-29T14:53:11.493Z,17.69
2023-03-29T14:55:37.875Z,17.75
2023-03-29T14:58:04.259Z,17.77
2023-03-29T15:00:30.612Z,17.79
2023-03-29T15:02:57.139Z,17.84
2023-03-29T15:05:25.452Z,17.93
2023-03-29T15:07:51.997Z,17.94
2023-03-29T15:10:18.354Z,18.02
2023-03-29T15:12:44.752Z,18.08
2023-03-29T15:15:11.144Z,17.98
2023-03-29T15:17:50.197Z,17.74
2023-03-29T15:20:18.364Z,17.63
2023-03-29T15:22:44.709Z,17.59
2023-03-29T15:25:11.100Z,17.60
2023-03-29T15:27:37.445Z,17.58
2023-03-29T15:30:03.839Z,17.47
2023-03-29T15:32:30.280Z,17.51
2023-03-29T15:34:56.674Z,17.43
2023-03-29T15:37:23.073Z,17.39
2023-03-29T15:39:49.573Z,17.44
2023-03-29T15:42:15.922Z,17.42
2023-03-29T15:44:42.303Z,17.40
2023-03-29T15:47:08.704Z,17.46
2023-03-29T15:49:35.136Z,17.38
2023-03-29T15:52:01.486Z,17.32
2023-03-29T15:54:27.869Z,17.40
2023-03-29T15:56:54.365Z,17.40
2023-03-29T15:59:20.811Z,17.35
2023-03-29T16:01:47.254Z,17.41
2023-03-29T16:04:13.627Z,17.31
2023-03-29T16:06:39.979Z,17.27
2023-03-29T16:09:06.377Z,17.27
2023-03-29T16:11:32.732Z,17.26
2023-03-29T16:13:59.101Z,17.28
2023-03-29T16:16:25.708Z,17.29
2023-03-29T16:18:52.105Z,17.36
2023-03-29T16:21:18.506Z,17.34
2023-03-29T16:23:44.894Z,17.35
2023-03-29T16:26:11.242Z,17.37
2023-03-29T16:28:37.617Z,17.26
2023-03-29T16:31:04.002Z,17.26
2023-03-29T16:33:30.588Z,17.25
2023-03-29T16:35:56.999Z,17.20
2023-03-29T16:38:23.397Z,17.20
2023-03-29T16:40:49.734Z,17.16
2023-03-29T16:43:16.116Z,17.14
2023-03-29T16:45:42.561Z,17.10
2023-03-29T16:48:09.002Z,17.01
2023-03-29T16:50:35.407Z,17.00
2023-03-29T16:53:01.786Z,16.99
2023-03-29T16:55:28.121Z,16.97
2023-03-29T16:57:54.496Z,16.89
2023-03-29T17:00:20.874Z,16.79
2023-03-29T17:02:47.278Z,16.68
2023-03-29T17:05:13.657Z,16.67
2023-03-29T17:07:39.992Z,16.59
2023-03-29T17:10:06.342Z,16.59
2023-03-29T17:12:32.682Z,16.56
2023-03-29T17:14:59.031Z,16.52
2023-03-29T17:17:25.455Z,16.49
2023-03-29T17:19:51.849Z,16.59
2023-03-29T17:22:18.237Z,16.71
2023-03-29T17:24:44.626Z,16.67
2023-03-29T17:27:11.033Z,16.62
2023-03-29T17:29:37.426Z,16.60
2023-03-29T17:32:03.822Z,16.50
2023-03-29T17:34:30.287Z,16.49
2023-03-29T17:36:56.643Z,16.55
2023-03-29T17:39:23.027Z,16.49
2023-03-29T17:41:49.404Z,16.40
2023-03-29T17:44:16.020Z,16.25
2023-03-29T17:46:42.531Z,16.25
2023-03-29T17:49:08.925Z,16.17
2023-03-29T17:51:35.377Z,16.11
2023-03-29T17:54:01.771Z,16.02
2023-03-29T17:56:28.142Z,16.01
2023-03-29T17:58:54.476Z,15.97
2023-03-29T18:01:20.935Z,15.99
2023-03-29T18:03:47.365Z,15.92
2023-03-29T18:06:13.742Z,15.91
2023-03-29T18:08:40.087Z,15.97
2023-03-29T18:11:06.418Z,15.99
2023-03-29T18:13:32.785Z,16.02
2023-03-29T18:15:59.133Z,16.09
2023-03-29T18:18:25.471Z,16.10
2023-03-29T18:20:51.789Z,16.03
2023-03-29T18:23:18.220Z,15.88
2023-03-29T18:25:44.592Z,15.74
2023-03-29T18:28:10.976Z,15.73
2023-03-29T18:30:37.329Z,15.67
2023-03-29T18:33:03.778Z,15.66
2023-03-29T18:35:30.221Z,15.73
2023-03-29T18:37:56.590Z,15.77
2023-03-29T18:40:22.972Z,15.83
2023-03-29T18:42:49.376Z,15.87
2023-03-29T18:45:15.723Z,15.83
2023-03-29T18:47:42.121Z,15.82
2023-03-29T18:50:08.542Z,15.82
2023-03-29T18:52:34.897Z,15.79
2023-03-29T18:55:01.233Z,15.77
2023-03-29T18:57:27.637Z,15.81
2023-03-29T18:59:54.054Z,15.81
2023-03-29T19:02:20.535Z,15.74
2023-03-29T19:04:46.940Z,15.79
2023-03-29T19:07:13.309Z,15.72
2023-03-29T19:09:39.726Z,15.65
2023-03-29T19:12:06.078Z,15.59
2023-03-29T19:14:32.412Z,15.50
2023-03-29T19:16:58.964Z,15.50
2023-03-29T19:19:25.368Z,15.44
2023-03-29T19:21:51.759Z,15.47
2023-03-29T19:24:18.141Z,15.42
2023-03-29T19:26:44.598Z,15.37
2023-03-29T19:29:11.024Z,15.34
2023-03-29T19:31:37.399Z,15.26
2023-03-29T19:34:03.747Z,15.22
2023-03-29T19:36:30.127Z,15.24
2023-03-29T19:38:56.513Z,15.29
2023-03-29T19:41:22.852Z,15.35
2023-03-29T19:43:49.255Z,15.35
2023-03-29T19:46:15.796Z,15.39
2023-03-29T19:48:42.307Z,15.44
2023-03-29T19:51:08.783Z,15.53
2023-03-29T19:53:38.421Z,15.59
2023-03-29T19:56:05.485Z,15.56
2023-03-29T19:58:31.938Z,15.58
2023-03-29T20:00:58.296Z,15.58
2023-03-29T20:03:24.678Z,15.56
2023-03-29T20:05:51.049Z,15.52
2023-03-29T20:08:17.409Z,15.50
2023-03-29T20:10:43.779Z,15.50
2023-03-29T20:13:10.161Z,15.40
2023-03-29T20:15:36.520Z,15.35
2023-03-29T20:18:03.014Z,15.29
2023-03-29T20:20:29.398Z,15.23
2023-03-29T20:22:55.734Z,15.26
2023-03-29T20:25:22.078Z,15.27
2023-03-29T20:27:48.428Z,15.28
2023-03-29T20:30:14.775Z,15.28
2023-03-29T20:32:41.188Z,15.24
2023-03-29T20:35:07.606Z,15.22
2023-03-29T20:37:33.974Z,15.15
2023-03-29T20:40:00.354Z,15.07
2023-03-29T20:42:26.758Z,15.12
2023-03-29T20:44:53.145Z,15.07
2023-03-29T20:47:19.535Z,15.11
2023-03-29T20:49:45.916Z,15.15
2023-03-29T20:52:12.277Z,15.17
2023-03-29T20:54:38.756Z,15.20
2023-03-29T20:57:05.295Z,15.26
2023-03-29T20:59:31.707Z,15.28
2023-03-29T21:01:58.153Z,15.25
2023-03-29T21:04:24.598Z,15.19
2023-03-29T21:06:50.962Z,15.22
2023-03-29T21:09:17.364Z,15.25
2023-03-29T21:11:43.719Z,15.27
2023-03-29T21:14:10.127Z,15.30
2023-03-29T21:16:36.562Z,15.47
2023-03-29T21:19:02.922Z,15.52
2023-03-29T21:21:29.270Z,15.60
2023-03-29T21:23:55.639Z,15.70
2023-03-29T21:26:22.040Z,15.70
2023-03-29T21:28:48.392Z,15.78
2023-03-29T21:31:14.861Z,15.80
2023-03-29T21:33:41.275Z,15.82
2023-03-29T21:36:07.674Z,15.83
2023-03-29T21:38:34.081Z,15.86
2023-03-29T21:41:00.643Z,15.85
2023-03-29T21:43:27.271Z,15.84
2023-03-29T21:45:53.706Z,15.79
2023-03-29T21:48:20.045Z,15.69
2023-03-29T21:50:46.442Z,15.63
2023-03-29T21:53:12.825Z,15.61
2023-03-29T21:55:39.182Z,15.58
2023-03-29T21:58:05.581Z,15.47
2023-03-29T22:00:31.998Z,15.42
2023-03-29T22:02:58.443Z,15.39
2023-03-29T22:05:24.874Z,15.38
2023-03-29T22:07:51.220Z,15.32
2023-03-29T22:10:17.569Z,15.26
2023-03-29T22:12:43.907Z,15.29
2023-03-29T22:15:10.283Z,15.27
2023-03-29T22:17:36.689Z,15.22
2023-03-29T22:20:03.106Z,15.30
2023-03-29T22:22:29.474Z,15.25
2023-03-29T22:24:55.851Z,15.25
2023-03-29T22:27:22.252Z,15.27
2023-03-29T22:29:48.646Z,15.20
2023-03-29T22:32:15.121Z,15.23
2023-03-29T22:34:41.574Z,15.26
2023-03-29T22:37:07.947Z,15.26
2023-03-29T22:39:34.329Z,15.27
2023-03-29T22:42:00.731Z,15.26
2023-03-29T22:44:27.138Z,15.30
2023-03-29T22:46:53.533Z,15.26
2023-03-29T22:49:19.889Z,15.23
2023-03-29T22:51:46.280Z,15.24
2023-03-29T22:54:12.682Z,15.17
2023-03-29T22:56:39.077Z,15.12
2023-03-29T22:59:05.516Z,15.09
2023-03-29T23:01:31.923Z,15.09
2023-03-29T23:03:58.353Z,15.07
2023-03-29T23:06:24.754Z,15.12
2023-03-29T23:08:51.152Z,15.15
2023-03-29T23:11:17.544Z,15.17
2023-03-29T23:13:43.938Z,15.23
2023-03-29T23:16:10.343Z,15.23
2023-03-29T23:18:36.731Z,15.26
2023-03-29T23:21:03.344Z,15.34
2023-03-29T23:23:29.958Z,15.29
2023-03-29T23:25:56.338Z,15.29
2023-03-29T23:28:22.698Z,15.28
2023-03-29T23:30:49.126Z,15.27
2023-03-29T23:33:15.488Z,15.20
2023-03-29T23:35:41.883Z,15.24
2023-03-29T23:38:08.283Z,15.35
2023-03-29T23:40:34.634Z,15.44
2023-03-29T23:43:01.014Z,15.44
2023-03-29T23:45:27.361Z,15.50
2023-03-29T23:47:53.774Z,15.51
2023-03-29T23:50:20.142Z,15.41
2023-03-29T23:52:46.478Z,15.30
2023-03-29T23:55:12.877Z,15.32
2023-03-29T23:57:39.229Z,15.05
